createdAt,value
2023-03-02T00:03:15.181Z,1011.90
2023-03-02T00:08:19.333Z,1011.86
2023-03-02T00:13:23.480Z,1011.68
2023-03-02T00:18:27.690Z,1011.67
2023-03-02T00:23:31.817Z,1011.48
2023-03-02T00:28:36.033Z,1011.34
2023-03-02T00:33:40.168Z,1011.28
2023-03-02T00:38:44.296Z,1011.28
2023-03-02T00:43:48.514Z,1011.23
2023-03-02T00:48:52.699Z,1010.96
2023-03-02T00:53:56.810Z,1010.85
2023-03-02T00:59:01.024Z,1010.80
2023-03-02T01:04:05.438Z,1010.65
2023-03-02T01:09:09.332Z,1010.57
2023-03-02T01:14:13.492Z,1010.41
2023-03-02T01:19:17.655Z,1010.48
2023-03-02T01:24:21.838Z,1010.58
2023-03-02T01:29:24.113Z,1010.48
2023-03-02T01:34:28.288Z,1010.34
2023-03-02T01:39:30.565Z,1010.20
2023-03-02T01:44:34.728Z,1010.18
2023-03-02T01:49:38.875Z,1010.09
2023-03-02T01:54:43.036Z,1010.00
2023-03-02T01:59:47.213Z,1010.03
2023-03-02T02:04:51.385Z,1009.81
2023-03-02T02:09:55.536Z,1009.78
2023-03-02T02:14:59.746Z,1010.10
2023-03-02T02:20:03.903Z,1010.11
2023-03-02T02:25:08.071Z,1010.18
2023-03-02T02:30:12.205Z,1010.31
2023-03-02T02:35:16.375Z,1010.25
2023-03-02T02:40:20.569Z,1010.24
2023-03-02T02:45:24.714Z,1010.11
2023-03-02T02:50:28.907Z,1009.94
2023-03-02T02:55:33.051Z,1009.94
2023-03-02T03:00:37.236Z,1009.96
2023-03-02T03:10:45.538Z,1009.93
2023-03-02T03:15:49.705Z,1009.92
2023-03-02T03:20:53.880Z,1010.04
2023-03-02T03:25:58.028Z,1010.02
2023-03-02T03:31:00.716Z,1010.10
2023-03-02T03:36:04.463Z,1010.06
2023-03-02T03:41:06.742Z,1010.11
2023-03-02T03:46:11.057Z,1010.10
2023-03-02T03:51:15.118Z,1010.18
2023-03-02T03:56:19.249Z,1010.32
2023-03-02T04:01:23.476Z,1010.32
2023-03-02T04:06:27.597Z,1010.29
2023-03-02T04:11:31.762Z,1010.24
2023-03-02T04:16:35.953Z,1010.31
2023-03-02T04:21:40.128Z,1010.41
2023-03-02T04:26:44.263Z,1010.47
2023-03-02T04:31:48.619Z,1010.57
2023-03-02T04:36:52.609Z,1010.36
2023-03-02T04:41:56.783Z,1010.29
2023-03-02T04:47:01.010Z,1010.16
2023-03-02T04:52:05.132Z,1010.18
2023-03-02T04:57:09.286Z,1010.14
2023-03-02T05:02:13.581Z,1010.17
2023-03-02T05:07:17.605Z,1010.05
2023-03-02T05:12:21.815Z,1010.15
2023-03-02T05:17:25.940Z,1010.15
2023-03-02T05:22:30.107Z,1010.10
2023-03-02T05:27:32.410Z,1010.15
2023-03-02T05:32:36.618Z,1010.07
2023-03-02T05:37:39.002Z,1010.08
2023-03-02T05:42:42.992Z,1010.05
2023-03-02T05:47:47.223Z,1010.07
2023-03-02T05:52:51.500Z,1010.02
2023-03-02T05:57:55.472Z,1009.91
2023-03-02T06:02:59.764Z,1009.90
2023-03-02T06:08:03.815Z,1010.04
2023-03-02T06:13:08.004Z,1010.03
2023-03-02T06:18:12.175Z,1010.11
2023-03-02T06:23:16.410Z,1010.17
2023-03-02T06:28:20.476Z,1010.25
2023-03-02T06:33:24.655Z,1010.28
2023-03-02T06:38:28.821Z,1010.49
2023-03-02T06:43:33.022Z,1010.60
2023-03-02T06:48:37.703Z,1010.54
2023-03-02T06:53:41.337Z,1010.67
2023-03-02T06:58:45.492Z,1010.71
2023-03-02T07:03:49.684Z,1010.80
2023-03-02T07:08:53.789Z,1010.91
2023-03-02T07:13:57.963Z,1010.90
2023-03-02T07:19:02.149Z,1010.93
2023-03-02T07:24:04.420Z,1010.94
2023-03-02T07:29:08.584Z,1010.97
2023-03-02T07:34:10.865Z,1011.08
2023-03-02T07:39:15.046Z,1011.08
2023-03-02T07:44:19.539Z,1011.22
2023-03-02T07:49:23.365Z,1011.32
2023-03-02T07:54:27.553Z,1011.45
2023-03-02T07:59:31.719Z,1011.46
2023-03-02T08:04:35.857Z,1011.40
2023-03-02T08:09:40.094Z,1011.48
2023-03-02T08:14:44.198Z,1011.44
2023-03-02T08:19:48.407Z,1011.53
2023-03-02T08:24:52.597Z,1011.66
2023-03-02T08:29:56.704Z,1011.72
2023-03-02T08:35:00.885Z,1011.80
2023-03-02T08:40:05.025Z,1011.81
2023-03-02T08:45:09.237Z,1011.79
2023-03-02T08:50:13.396Z,1011.95
2023-03-02T08:55:17.618Z,1012.12
2023-03-02T09:00:21.692Z,1012.12
2023-03-02T09:05:25.835Z,1012.19
2023-03-02T09:10:30.026Z,1012.09
2023-03-02T09:15:34.201Z,1012.18
2023-03-02T09:20:36.482Z,1012.24
2023-03-02T09:25:40.658Z,1012.28
2023-03-02T09:30:42.898Z,1012.17
2023-03-02T09:35:47.081Z,1012.22
2023-03-02T09:40:51.219Z,1012.25
2023-03-02T09:45:55.490Z,1012.30
2023-03-02T09:50:59.557Z,1012.26
2023-03-02T09:56:03.801Z,1012.21
2023-03-02T10:01:07.896Z,1012.20
2023-03-02T10:06:12.064Z,1012.26
2023-03-02T10:11:16.191Z,1012.25
2023-03-02T10:16:20.439Z,1012.40
2023-03-02T10:21:24.507Z,1012.33
2023-03-02T10:26:28.702Z,1012.40
2023-03-02T10:31:32.871Z,1012.57
2023-03-02T10:36:37.396Z,1012.59
2023-03-02T10:41:41.342Z,1012.49
2023-03-02T10:46:45.462Z,1012.59
2023-03-02T10:51:49.516Z,1012.62
2023-03-02T10:56:51.828Z,1012.57
2023-03-02T11:01:56.050Z,1012.72
2023-03-02T11:07:00.132Z,1012.58
2023-03-02T11:12:04.331Z,1012.64
2023-03-02T11:17:06.568Z,1012.62
2023-03-02T11:22:10.732Z,1012.90
2023-03-02T11:27:14.891Z,1013.01
2023-03-02T11:32:19.153Z,1012.92
2023-03-02T11:37:23.202Z,1013.04
2023-03-02T11:42:27.405Z,1012.87
2023-03-02T11:47:31.522Z,1012.81
2023-03-02T11:52:35.708Z,1012.82
2023-03-02T11:57:39.897Z,1012.75
2023-03-02T12:02:44.035Z,1012.73
2023-03-02T12:07:48.182Z,1012.62
2023-03-02T12:12:52.336Z,1012.54
2023-03-02T12:17:56.515Z,1012.48
2023-03-02T12:23:00.729Z,1012.45
2023-03-02T12:28:04.813Z,1012.36
2023-03-02T12:33:08.979Z,1012.46
2023-03-02T12:38:13.301Z,1012.32
2023-03-02T12:43:17.353Z,1012.26
2023-03-02T12:48:21.723Z,1012.26
2023-03-02T12:53:25.645Z,1012.17
2023-03-02T12:58:29.793Z,1012.19
2023-03-02T13:03:32.105Z,1012.10
2023-03-02T13:08:36.305Z,1011.98
2023-03-02T13:13:38.542Z,1011.86
2023-03-02T13:18:42.718Z,1011.90
2023-03-02T13:23:46.824Z,1011.79
2023-03-02T13:28:51.015Z,1011.85
2023-03-02T13:33:55.198Z,1011.81
2023-03-02T13:38:59.308Z,1011.75
2023-03-02T13:44:03.555Z,1011.80
2023-03-02T13:49:10.778Z,1011.76
2023-03-02T13:54:11.809Z,1011.67
2023-03-02T13:59:15.922Z,1011.60
2023-03-02T14:04:20.182Z,1011.59
2023-03-02T14:09:24.298Z,1011.49
2023-03-02T14:14:28.443Z,1011.46
2023-03-02T14:19:32.618Z,1011.32
2023-03-02T14:24:36.787Z,1011.34
2023-03-02T14:29:40.899Z,1011.30
2023-03-02T14:34:45.096Z,1011.38
2023-03-02T14:39:49.216Z,1011.21
2023-03-02T14:49:57.544Z,1011.18
2023-03-02T14:55:01.705Z,1011.15
2023-03-02T15:00:05.878Z,1011.16
2023-03-02T15:05:08.193Z,1011.18
2023-03-02T15:10:12.352Z,1011.06
2023-03-02T15:15:14.611Z,1011.13
2023-03-02T15:20:18.774Z,1011.08
2023-03-02T15:25:22.911Z,1011.13
2023-03-02T15:30:27.199Z,1011.07
2023-03-02T15:35:31.267Z,1011.10
2023-03-02T15:40:35.404Z,1011.15
2023-03-02T15:45:39.572Z,1011.03
2023-03-02T15:50:43.712Z,1011.01
2023-03-02T15:55:47.905Z,1011.03
2023-03-02T16:00:52.107Z,1011.03
2023-03-02T16:05:56.253Z,1011.10
2023-03-02T16:11:00.499Z,1011.17
2023-03-02T16:16:04.648Z,1011.16
2023-03-02T16:21:08.686Z,1011.11
2023-03-02T16:26:12.849Z,1011.23
2023-03-02T16:31:17.184Z,1011.27
2023-03-02T16:36:21.180Z,1011.20
2023-03-02T16:41:25.325Z,1011.12
2023-03-02T16:46:29.527Z,1011.06
2023-03-02T16:51:33.726Z,1010.98
2023-03-02T16:56:37.859Z,1010.95
2023-03-02T17:01:40.132Z,1010.97
2023-03-02T17:06:59.627Z,1010.97
2023-03-02T17:11:48.440Z,1010.79
2023-03-02T17:16:50.939Z,1010.83
2023-03-02T17:21:54.841Z,1010.82
2023-03-02T17:26:59.042Z,1010.88
2023-03-02T17:32:03.227Z,1010.84
2023-03-02T17:37:07.366Z,1010.83
2023-03-02T17:42:11.543Z,1010.75
2023-03-02T17:47:15.644Z,1010.82
2023-03-02T17:52:19.824Z,1010.76
2023-03-02T17:57:23.998Z,1010.70
2023-03-02T18:02:28.182Z,1010.73
2023-03-02T18:07:32.405Z,1010.66
2023-03-02T18:12:36.512Z,1010.50
2023-03-02T18:17:40.679Z,1010.51
2023-03-02T18:22:44.800Z,1010.39
2023-03-02T18:27:49.065Z,1010.24
2023-03-02T18:32:53.134Z,1010.30
2023-03-02T18:37:57.306Z,1010.25
2023-03-02T18:43:01.469Z,1010.24
2023-03-02T18:48:05.626Z,1010.23
2023-03-02T18:53:11.856Z,1010.05
2023-03-02T18:58:13.932Z,1010.03
2023-03-02T19:03:16.226Z,1009.85
2023-03-02T19:08:20.415Z,1009.80
2023-03-02T19:13:24.733Z,1009.72
2023-03-02T19:18:26.836Z,1009.52
2023-03-02T19:23:30.998Z,1009.32
2023-03-02T19:28:35.172Z,1009.15
2023-03-02T19:33:39.309Z,1008.95
2023-03-02T19:38:43.490Z,1008.96
2023-03-02T19:43:47.682Z,1008.94
2023-03-02T19:48:51.824Z,1008.79
2023-03-02T19:53:56.005Z,1008.78
2023-03-02T19:59:00.153Z,1008.61
2023-03-02T20:04:04.308Z,1008.50
2023-03-02T20:09:08.496Z,1008.44
2023-03-02T20:14:16.796Z,1008.32
2023-03-02T20:19:16.839Z,1008.28
2023-03-02T20:24:20.981Z,1008.09
2023-03-02T20:29:25.164Z,1008.02
2023-03-02T20:34:29.286Z,1007.94
2023-03-02T20:39:33.512Z,1007.87
2023-03-02T20:44:37.660Z,1007.72
2023-03-02T20:49:41.826Z,1007.56
2023-03-02T20:54:45.944Z,1007.50
2023-03-02T20:59:50.136Z,1007.41
2023-03-02T21:04:52.470Z,1007.21
2023-03-02T21:09:56.584Z,1007.09
2023-03-02T21:14:58.839Z,1006.95
2023-03-02T21:20:02.982Z,1006.87
2023-03-02T21:25:07.200Z,1006.63
2023-03-02T21:30:11.352Z,1006.60
2023-03-02T21:35:15.502Z,1006.42
2023-03-02T21:40:19.787Z,1006.30
2023-03-02T21:45:23.873Z,1006.25
2023-03-02T21:50:28.004Z,1006.24
2023-03-02T21:55:32.153Z,1006.12
2023-03-02T22:00:36.338Z,1006.10
2023-03-02T22:05:40.521Z,1006.06
2023-03-02T22:10:44.694Z,1005.99
2023-03-02T22:15:48.920Z,1006.01
2023-03-02T22:20:52.961Z,1005.96
2023-03-02T22:25:57.213Z,1005.96
2023-03-02T22:31:01.382Z,1005.91
2023-03-02T22:36:05.490Z,1005.83
2023-03-02T22:41:09.686Z,1005.92
2023-03-02T22:46:13.932Z,1006.06
2023-03-02T22:51:17.984Z,1005.93
2023-03-02T22:56:22.173Z,1005.89
2023-03-02T23:01:24.458Z,1005.80
2023-03-02T23:06:26.707Z,1005.77
2023-03-02T23:11:30.840Z,1005.72
2023-03-02T23:16:35.198Z,1005.77
2023-03-02T23:21:37.308Z,1005.78
2023-03-02T23:26:41.452Z,1005.55
2023-03-02T23:31:45.694Z,1005.55
2023-03-02T23:36:49.824Z,1005.54
2023-03-02T23:41:54.088Z,1005.43
2023-03-02T23:46:58.111Z,1005.36
2023-03-02T23:52:02.274Z,1005.24
2023-03-02T23:57:06.476Z,1005.23
